Flight Track Log - Related Links

Times and Time Zones

All times are in EDT time to prevent confusion due to time zone crossing. See the SWA876 flight status page for this flight to view local times or setup timezone preferences in your user account.

Time Position Orientation Groundspeed Altitude Reporting Facility
EDT Latitude Longitude Course Direction KTS MPH feet Rate Location/Type
Sat 10:41:41 AM 42.9500 -87.8833 90° East 156 180 1,400  Level KMKE
Sat 10:42:41 AM 42.9500 -87.8167 90° East 203 234 3,100 1,800 Climbing KMKE
Sat 10:44:01 AM 42.9564 -87.6892 86° East 265 305 5,600 2,620 Climbing Chicago Center
Sat 10:45:03 AM 42.9572 -87.5764 89° East 296 341 9,300 2,952 Climbing Chicago Center
Sat 10:46:05 AM 42.9606 -87.4522 88° East 325 374 11,700 2,758 Climbing Chicago Center
Sat 10:47:07 AM 42.9669 -87.3153 86° East 361 415 15,000 3,366 Climbing Chicago Center
Sat 10:48:08 AM 42.9761 -87.1436 86° East 377 434 18,600 2,976 Climbing Chicago Center
Sat 10:49:10 AM 42.9914 -86.9928 82° East 398 458 21,100 2,323 Climbing Chicago Center
Sat 10:50:12 AM 43.0047 -86.8358 83° East 414 476 23,400 2,244 Climbing Chicago Center
Sat 10:51:13 AM 43.0189 -86.6722 83° East 432 497 25,700 1,756 Climbing Chicago Center
Sat 10:52:15 AM 43.0314 -86.5039 84° East 444 511 27,000 629 Climbing Chicago Center
Sat 10:53:17 AM 43.0439 -86.3336 84° East 452 520 27,000  Level Chicago Center
Sat 10:54:18 AM 43.0575 -86.1642 84° East 448 516 27,000  Level Chicago Center
Sat 10:55:20 AM 43.0692 -85.9864 85° East 451 519 27,000 435 Level Chicago Center
Sat 10:56:22 AM 43.0825 -85.8058 84° East 454 522 27,900 1,366 Climbing Chicago Center
Sat 10:57:23 AM 43.0944 -85.6333 85° East 454 522 29,800 1,659 Climbing Chicago Center
Sat 10:58:25 AM 43.1064 -85.4569 85° East 463 533 31,300 1,748 Climbing Chicago Center
Sat 10:59:30 AM 43.1203 -85.2381 85° East 479 551 33,500 1,937 Climbing Chicago Center
Sat 11:00:32 AM 43.1331 -85.0583 84° East 478 550 35,400 1,854 Climbing Chicago Center
Sat 11:01:33 AM 43.1403 -84.8814 87° East 469 540 37,300 1,561 Climbing Chicago Center
Sat 11:02:35 AM 43.1164 -84.7078 101° East 464 534 38,600 829 Climbing Chicago Center
Sat 11:03:36 AM 43.0914 -84.5356 101° East 463 533 39,000 209 Climbing Chicago Center
Sat 11:04:30 AM 43.0636 -84.3486 101° East 465 535 39,000  Level Cleveland Center
Sat 11:05:30 AM 43.0372 -84.1964 103° East 459 528 39,000  Level Cleveland Center
Sat 11:06:30 AM 43.0114 -84.0189 101° East 459 528 39,000  Level Cleveland Center
Sat 11:07:30 AM 42.9850 -83.8472 102° East 459 528 39,000  Level Cleveland Center
Sat 11:08:30 AM 42.9608 -83.6672 100° East 465 535 39,000  Level Cleveland Center
Sat 11:09:30 AM 42.9319 -83.4928 103° East 470 541 39,000  Level Cleveland Center
Sat 11:10:30 AM 42.9072 -83.3186 101° East 470 541 39,000  Level Cleveland Center
Sat 11:11:30 AM 42.8797 -83.1472 102° East 470 541 39,000  Level Cleveland Center
Sat 11:12:30 AM 42.8311 -82.9811 112° Southeast 470 541 39,000  Level Cleveland Center
Sat 11:13:30 AM 42.7822 -82.8208 113° Southeast 460 529 39,000  Level Cleveland Center
Sat 11:14:30 AM 42.7311 -82.6578 113° Southeast 460 529 39,000  Level Cleveland Center
Sat 11:15:30 AM 42.6819 -82.4953 112° Southeast 460 529 39,000  Level Cleveland Center
Sat 11:16:30 AM 42.6303 -82.3328 113° Southeast 460 529 39,000  Level Cleveland Center
Sat 11:17:30 AM 42.5744 -82.1564 113° Southeast 460 529 39,000  Level Cleveland Center
Sat 11:18:30 AM 42.5244 -81.9975 113° Southeast 460 529 39,000  Level Cleveland Center
Sat 11:19:30 AM 42.4722 -81.8358 114° Southeast 460 529 39,000  Level Cleveland Center
Sat 11:20:30 AM 42.4278 -81.6942 113° Southeast 455 524 39,000  Level Cleveland Center
Sat 11:21:30 AM 42.3792 -81.5389 113° Southeast 455 524 39,000  Level Cleveland Center
Sat 11:22:30 AM 42.3261 -81.3836 115° Southeast 456 525 39,000  Level Cleveland Center
Sat 11:23:30 AM 42.2772 -81.2203 112° Southeast 461 531 39,000  Level Cleveland Center
Sat 11:24:30 AM 42.2175 -81.0458 115° Southeast 461 531 39,000  Level Cleveland Center
Sat 11:25:30 AM 42.1658 -80.8858 113° Southeast 461 531 39,000  Level Cleveland Center
Sat 11:26:30 AM 42.1119 -80.7286 115° Southeast 460 529 39,000  Level Cleveland Center
Sat 11:27:30 AM 42.0642 -80.5692 112° Southeast 460 529 39,000  Level Cleveland Center
Sat 11:28:30 AM 42.0100 -80.4128 115° Southeast 467 537 39,000  Level Cleveland Center
Sat 11:29:30 AM 41.9553 -80.2536 115° Southeast 461 531 39,000  Level Cleveland Center
Sat 11:30:30 AM 41.9006 -80.0978 115° Southeast 461 531 39,000  Level Cleveland Center
Sat 11:31:30 AM 41.8561 -79.9586 113° Southeast 456 525 39,000  Level Cleveland Center
Sat 11:32:30 AM 41.7969 -79.8006 117° Southeast 464 534 39,000  Level Cleveland Center
Sat 11:33:30 AM 41.7456 -79.6453 114° Southeast 464 534 39,000  Level Cleveland Center
Sat 11:34:30 AM 41.6878 -79.4736 114° Southeast 459 528 39,000  Level Cleveland Center
Sat 11:35:30 AM 41.6319 -79.3164 115° Southeast 464 534 39,000  Level Cleveland Center
Sat 11:36:30 AM 41.5781 -79.1592 115° Southeast 464 534 39,000  Level Cleveland Center
Sat 11:37:30 AM 41.5217 -78.9994 115° Southeast 464 534 39,000  Level Cleveland Center
Sat 11:38:30 AM 41.4672 -78.8428 115° Southeast 464 534 39,000  Level Cleveland Center
Sat 11:39:30 AM 41.4106 -78.6839 115° Southeast 464 534 39,000  Level Cleveland Center
Sat 11:40:30 AM 41.3603 -78.5414 115° Southeast 464 534 39,000 -1,538 Level Cleveland Center
Sat 11:42:10 AM 41.2597 -78.2650 116° Southeast 459 528 34,900 -2,264 Descending New York Center
Sat 11:43:09 AM 41.2097 -78.0994 112° Southeast 470 541 33,000 -950 Descending New York Center
Sat 11:44:10 AM 41.1856 -77.9175 100° East 481 554 33,000  Level New York Center
Sat 11:45:09 AM 41.1631 -77.7303 99° East 505 581 33,000  Level New York Center
Sat 11:46:10 AM 41.1386 -77.5431 100° East 510 587 33,000  Level New York Center
Sat 11:47:10 AM 41.1136 -77.3589 100° East 510 587 33,000 -550 Level New York Center
Sat 11:48:10 AM 41.0883 -77.1747 100° East 510 587 31,900 -1,412 Descending New York Center
Sat 11:49:09 AM 41.0642 -77.0017 100° East 500 575 30,200 -2,067 Descending New York Center
Sat 11:50:09 AM 41.0439 -76.8292 99° East 486 559 27,800 -2,300 Descending New York Center
Sat 11:51:09 AM 41.0208 -76.6647 100° East 466 536 25,600 -2,250 Descending New York Center
Sat 11:52:09 AM 40.9825 -76.5131 108° East 445 512 23,300 -2,300 Descending New York Center
Sat 11:53:09 AM 40.9478 -76.3672 107° East 427 491 21,000 -1,686 Descending New York Center
Sat 11:54:10 AM 40.9147 -76.2300 108° East 414 476 19,900 -1,289 Descending New York Center
Sat 11:55:10 AM 40.8833 -76.0956 107° East 385 443 18,400 -1,462 Descending New York Center
Sat 11:56:09 AM 40.8589 -75.9867 106° East 385 443 17,000 -2,017 Descending New York Center
Sat 11:57:09 AM 40.8219 -75.8331 108° East 391 450 14,400 -1,934 Descending New York Center
Sat 11:58:10 AM 40.7861 -75.6961 109° East 391 450 13,100 -694 Descending New York Center
Sat 11:59:10 AM 40.7506 -75.5456 107° East 391 450 13,000 -50 Descending New York Center
Sat 12:00:10 PM 40.7058 -75.4139 114° Southeast 391 450 13,000  Level New York Center
Sat 12:01:09 PM 40.6608 -75.2794 114° Southeast 396 456 13,000 -400 Level New York Center
Sat 12:02:10 PM 40.6178 -75.1564 115° Southeast 390 449 12,200 -1,400 Descending New York Center
Sat 12:03:09 PM 40.5781 -75.0392 114° Southeast 361 415 10,200 -1,100 Descending New York Center
Sat 12:04:10 PM 40.5428 -74.9222 112° Southeast 349 402 10,000 -51 Descending New York Center
Sat 12:05:06 PM 40.5167 -74.8167 108° East 338 389 10,100 52 Climbing New York TRACON
Sat 12:06:06 PM 40.4833 -74.7000 111° Southeast 341 392 10,100  Level New York TRACON
Sat 12:07:12 PM 40.4333 -74.5667 116° Southeast 346 398 10,100  Level New York TRACON
Sat 12:08:12 PM 40.4500 -74.4500 79° East 345 397 10,100  Level New York TRACON
Sat 12:09:06 PM 40.4833 -74.3333 69° East 345 397 10,100 -368 Level New York TRACON
Sat 12:10:06 PM 40.5167 -74.2333 66° East 315 362 9,400 -1,150 Descending New York TRACON
Sat 12:11:06 PM 40.5333 -74.1167 79° East 314 361 7,800 -1,650 Descending New York TRACON
Sat 12:12:06 PM 40.5833 -74.0333 52° Northeast 301 346 6,100 -1,550 Descending New York TRACON
Sat 12:13:06 PM 40.6667 -73.9667 31° Northeast 293 337 4,700 -1,000 Descending New York TRACON
Sat 12:14:06 PM 40.7167 -73.9000 45° Northeast 291 335 4,100 -286 Descending New York TRACON
Sat 12:15:12 PM 40.7833 -73.8167 43° Northeast 281 323 4,100 -100 Level New York TRACON
Sat 12:16:06 PM 40.8000 -73.7500 72° East 230 265 3,900 -579 Descending New York TRACON
Sat 12:17:06 PM 40.7833 -73.6667 105° East 209 241 3,000 -857 Descending New York TRACON
Sat 12:18:12 PM 40.7500 -73.6667 180° South 177 204 2,100 -429 Descending New York TRACON
Sat 12:19:12 PM 40.7000 -73.6833 194° South 176 203 2,100 -143 Level New York TRACON
Sat 12:20:18 PM 40.7167 -73.7500 288° West 163 188 1,800 -381 Descending New York TRACON
Sat 12:21:18 PM 40.7333 -73.8000 294° West 146 168 1,300 -650 Descending New York TRACON
Sat 12:22:18 PM 40.7667 -73.8333 323° Northwest 135 155 500 -800 Descending New York TRACON
Sat 12:24:00 PM 40.7667 -73.8667 276° West  Level FlightAware Approximate

Login

Don't have an account? Register now (free) for customized features, flight alerts, and more!